Create Tblcommutelog Verified Points Advance Search
| # | Trip ID | Id Commuter | Trip Date | Trip Num | Current Lat | Current Lng | Delta Distance | Current Time | Activity | Activity Confidence | Current Speed | |
|---|---|---|---|---|---|---|---|---|---|---|---|---|
| 72341 | 260129_714319_16514952_0647 | 714319 | (not set) | (not set) | 38.800550781203 | -77.165593785665 | 10.5932 | 2026-01-29 07:08:44 | in_vehicle | 100 | 13.634697399126 | |
| 72342 | 260129_789579_16464305_0638 | 789579 | (not set) | (not set) | 38.939278926508 | -77.27070885452 | 15.0985 | 2026-01-29 07:08:45 | in_vehicle | 100 | 10.295314134487 | |
| 72343 | 260129_788537_16416993_0648 | 788537 | (not set) | (not set) | 39.106984666544 | -76.699910006651 | 4.797 | 2026-01-29 07:08:46 | in_vehicle | 100 | 13.603404650996 | |
| 72344 | 260129_786649_16516467_0703 | 786649 | (not set) | (not set) | 38.915759066904 | -76.986467984905 | 1.6366 | 2026-01-29 07:08:47 | in_vehicle | 100 | 5.900918218638 | |
| 72345 | 260129_788116_16505268_0631 | 788116 | (not set) | (not set) | 38.854836483333 | -77.2203564 | 29.5568 | 2026-01-29 07:08:47 | in_vehicle | 100 | 11.913596252023 | |
| 72346 | 260129_787617_6461772_0641 | 787617 | (not set) | (not set) | 38.896788031229 | -76.950913344788 | 25.4535 | 2026-01-29 07:08:55 | in_vehicle | 100 | 6.4865396479119 | |
| 72347 | 260129_770872_16486958_0701 | 770872 | (not set) | (not set) | 39.2061045 | -76.7497319 | 7.4042 | 2026-01-29 07:08:55 | in_vehicle | 100 | 12.418750614679 | |
| 72348 | 260129_714319_16514952_0647 | 714319 | (not set) | (not set) | 38.80292832972 | -77.162643744677 | 10.8218 | 2026-01-29 07:08:56 | in_vehicle | 100 | 13.549759939918 | |
| 72349 | 260129_787145_16451911_0647 | 787145 | (not set) | (not set) | 38.802940867984 | -77.16262790822 | 8.7994 | 2026-01-29 07:08:56 | in_vehicle | 100 | 13.795631532361 | |
| 72350 | 260129_788537_16416993_0648 | 788537 | (not set) | (not set) | 39.110287716874 | -76.699057245288 | 5.0294 | 2026-01-29 07:08:58 | in_vehicle | 100 | 14.019151161855 | |
| 72351 | 260129_789579_16464305_0638 | 789579 | (not set) | (not set) | 38.937167038974 | -77.268335196007 | 15.2924 | 2026-01-29 07:08:59 | in_vehicle | 100 | 9.9466235124769 | |
| 72352 | 260129_788116_16505268_0631 | 788116 | (not set) | (not set) | 38.851907783333 | -77.2203013 | 29.7589 | 2026-01-29 07:08:59 | in_vehicle | 100 | 12.280168444393 | |
| 72353 | 260129_786649_16516467_0703 | 786649 | (not set) | (not set) | 38.916547723723 | -76.984327334943 | 1.7641 | 2026-01-29 07:09:00 | in_vehicle | 100 | 7.2375656030113 | |
| 72354 | 260129_714319_16514952_0647 | 714319 | (not set) | (not set) | 38.805145079862 | -77.159594969591 | 11.0464 | 2026-01-29 07:09:08 | in_vehicle | 100 | 13.603404650996 | |
| 72355 | 260129_787145_16451911_0647 | 787145 | (not set) | (not set) | 38.805154160841 | -77.159581631463 | 9.0238 | 2026-01-29 07:09:08 | still | 33 | 13.701753287974 | |
| 72356 | 260129_770872_16486958_0701 | 770872 | (not set) | (not set) | 39.2078143 | -76.7462919 | 7.6233 | 2026-01-29 07:09:08 | in_vehicle | 100 | 11.958300177922 | |
| 72357 | 260129_787617_6461772_0641 | 787617 | (not set) | (not set) | 38.895390944412 | -76.952494929696 | 25.5822 | 2026-01-29 07:09:09 | in_vehicle | 100 | 6.5759474997094 | |
| 72358 | 260129_788537_16416993_0648 | 788537 | (not set) | (not set) | 39.11339711405 | -76.698262067811 | 5.2481 | 2026-01-29 07:09:09 | in_vehicle | 100 | 14.56453905782 | |
| 72359 | 260129_788116_16505268_0631 | 788116 | (not set) | (not set) | 38.849143683333 | -77.2202817 | 29.9496 | 2026-01-29 07:09:10 | still | 33 | 12.441102577628 | |
| 72360 | 260129_786649_16516467_0703 | 786649 | (not set) | (not set) | 38.917301940476 | -76.982230326151 | 1.8885 | 2026-01-29 07:09:11 | in_vehicle | 100 | 8.7083247650809 |